Time;durP1;ratioP1;P1;durP2;ratioP2;P2;SDS_P1;SDS_P2;PMS_P1;PMS_P2;Temp;Humidity;BMP_temperature;BMP_pressure;BME280_temperature;BME280_humidity;BME280_pressure;Samples;Min_cycle;Max_cycle;Signal;HPM_P1;HPM_P2
2021/06/11 00:01:10;;;;;;;;;;;29.20;88.90;;;;;;5087474;28;19908;-48
2021/06/11 00:03:36;;;;;;;;;;;29.10;89.00;;;;;;5087864;28;19908;-53
2021/06/11 00:06:02;;;;;;;;;;;29.10;89.00;;;;;;5087899;28;19958;-53
2021/06/11 00:08:30;;;;;;;;;;;29.10;89.10;;;;;;5087542;28;19911;-47
2021/06/11 00:10:57;;;;;;;;;;;29.10;89.10;;;;;;5087716;28;20096;-46
2021/06/11 00:13:23;;;;;;;;;;;29.10;89.20;;;;;;5088003;28;19927;-50
2021/06/11 00:15:49;;;;;;;;;;;29.10;89.20;;;;;;5087489;28;20039;-49
2021/06/11 00:18:16;;;;;;;;;;;29.10;88.90;;;;;;5088062;28;20096;-51
2021/06/11 00:20:42;;;;;;;;;;;29.10;88.80;;;;;;5087819;28;19912;-49
2021/06/11 00:23:08;;;;;;;;;;;29.00;88.60;;;;;;5087711;28;19907;-46
2021/06/11 00:25:34;;;;;;;;;;;29.10;88.50;;;;;;5087681;28;19915;-52
2021/06/11 00:28:01;;;;;;;;;;;29.00;88.20;;;;;;5087459;28;19962;-51
2021/06/11 00:30:29;;;;;;;;;;;29.00;88.10;;;;;;5087250;28;19931;-47
2021/06/11 00:32:56;;;;;;;;;;;29.00;87.80;;;;;;5087648;28;19900;-46
2021/06/11 00:35:22;;;;;;;;;;;29.00;87.80;;;;;;5087197;28;20202;-50
2021/06/11 00:37:48;;;;;;;;;;;29.00;87.70;;;;;;5087378;28;19942;-46
2021/06/11 00:40:14;;;;;;;;;;;29.00;87.60;;;;;;5069257;28;19954;-48
2021/06/11 00:42:40;;;;;;;;;;;29.00;87.60;;;;;;5087104;28;20240;-49
2021/06/11 00:45:08;;;;;;;;;;;28.90;87.60;;;;;;5087187;28;19910;-50
2021/06/11 00:47:34;;;;;;;;;;;28.90;87.50;;;;;;5087501;28;20124;-52
2021/06/11 00:50:00;;;;;;;;;;;28.90;87.40;;;;;;5086891;28;19942;-51
2021/06/11 00:52:27;;;;;;;;;;;28.90;87.30;;;;;;5087667;28;19935;-46
2021/06/11 00:54:53;;;;;;;;;;;28.90;87.40;;;;;;5087006;28;19927;-54
2021/06/11 00:57:19;;;;;;;;;;;28.80;87.20;;;;;;5087211;28;19908;-45
2021/06/11 00:59:46;;;;;;;;;;;28.80;87.10;;;;;;5086851;28;19900;-48
2021/06/11 01:02:13;;;;;;;;;;;28.80;87.20;;;;;;5086472;28;19908;-50
2021/06/11 01:04:39;;;;;;;;;;;28.80;87.10;;;;;;5086784;28;19907;-51
2021/06/11 01:07:06;;;;;;;;;;;28.70;87.00;;;;;;5086944;28;19979;-52
2021/06/11 01:09:34;;;;;;;;;;;28.70;86.90;;;;;;5086594;28;19900;-52
2021/06/11 01:12:01;;;;;;;;;;;28.70;86.90;;;;;;5085750;28;19908;-53
2021/06/11 01:14:27;;;;;;;;;;;28.70;86.90;;;;;;5086853;28;19951;-48
2021/06/11 01:16:53;;;;;;;;;;;28.70;86.90;;;;;;5087086;28;19916;-53
2021/06/11 01:19:22;;;;;;;;;;;28.70;87.60;;;;;;5086703;28;19942;-49
2021/06/11 01:22:17;;;;;;;;;;;28.70;87.10;;;;;;5086706;28;19913;-50
2021/06/11 01:24:50;;;;;;;;;;;28.60;86.90;;;;;;5073322;28;19900;-51
2021/06/11 01:27:17;;;;;;;;;;;28.60;87.00;;;;;;5086357;28;19987;-49
2021/06/11 01:29:48;;;;;;;;;;;28.60;87.00;;;;;;5086538;28;19907;-48
2021/06/11 01:32:15;;;;;;;;;;;28.60;87.00;;;;;;5086639;28;19940;-52
2021/06/11 01:34:42;;;;;;;;;;;28.60;86.90;;;;;;5086449;28;19904;-52
2021/06/11 01:37:09;;;;;;;;;;;28.60;86.90;;;;;;5086684;28;20223;-51
2021/06/11 01:39:36;;;;;;;;;;;28.60;86.90;;;;;;5086361;28;19900;-49
2021/06/11 01:42:03;;;;;;;;;;;28.50;87.00;;;;;;5085650;28;19946;-49
2021/06/11 01:44:30;;;;;;;;;;;28.50;87.00;;;;;;5086075;28;19900;-53
2021/06/11 01:46:58;;;;;;;;;;;28.50;87.10;;;;;;5085845;28;19909;-57
2021/06/11 01:49:25;;;;;;;;;;;28.50;87.00;;;;;;5085551;28;19945;-52
2021/06/11 01:51:53;;;;;;;;;;;28.50;86.80;;;;;;5085744;28;19917;-52
2021/06/11 01:54:20;;;;;;;;;;;28.40;86.70;;;;;;5085421;28;19912;-51
2021/06/11 01:56:47;;;;;;;;;;;28.40;87.20;;;;;;5085675;28;19908;-51
2021/06/11 01:59:14;;;;;;;;;;;28.40;87.00;;;;;;5085943;28;19967;-51
2021/06/11 02:01:41;;;;;;;;;;;28.40;87.20;;;;;;5085781;28;19954;-53
2021/06/11 02:04:07;;;;;;;;;;;28.40;87.40;;;;;;5085412;28;19919;-53
2021/06/11 02:06:34;;;;;;;;;;;28.30;87.40;;;;;;5085669;28;19908;-52
2021/06/11 02:09:01;;;;;;;;;;;28.30;87.40;;;;;;5067701;28;19900;-51
2021/06/11 02:11:27;;;;;;;;;;;28.30;87.60;;;;;;5085352;28;19915;-53
2021/06/11 02:13:54;;;;;;;;;;;28.20;87.70;;;;;;5085269;28;19904;-54
2021/06/11 02:16:23;;;;;;;;;;;28.20;88.00;;;;;;5084315;28;19900;-47
2021/06/11 02:18:49;;;;;;;;;;;28.20;88.10;;;;;;5082656;28;20204;-49
2021/06/11 02:21:17;;;;;;;;;;;28.20;88.60;;;;;;5078239;28;19979;-51
2021/06/11 02:23:43;;;;;;;;;;;28.10;88.30;;;;;;5082870;28;19906;-50
2021/06/11 02:26:11;;;;;;;;;;;28.00;88.00;;;;;;5084329;28;19900;-50
2021/06/11 02:28:37;;;;;;;;;;;28.00;88.60;;;;;;5084793;28;20207;-51
2021/06/11 02:31:04;;;;;;;;;;;28.00;89.30;;;;;;5084030;28;20208;-53
2021/06/11 02:33:30;;;;;;;;;;;28.00;89.60;;;;;;5084468;28;19900;-49
2021/06/11 02:35:57;;;;;;;;;;;28.00;89.70;;;;;;5084136;28;20100;-48
2021/06/11 02:38:23;;;;;;;;;;;28.00;90.00;;;;;;5083867;28;19908;-49
2021/06/11 02:40:50;;;;;;;;;;;28.00;90.00;;;;;;5084086;28;19908;-46
2021/06/11 02:43:18;;;;;;;;;;;28.00;90.20;;;;;;5084799;28;19908;-51
2021/06/11 02:45:50;;;;;;;;;;;28.00;90.40;;;;;;5084801;28;19901;-49
2021/06/11 02:48:16;;;;;;;;;;;27.90;90.30;;;;;;5084967;28;19915;-50
2021/06/11 02:50:50;;;;;;;;;;;27.90;90.40;;;;;;5084546;28;19971;-54
2021/06/11 02:53:25;;;;;;;;;;;27.90;90.50;;;;;;5083656;28;19916;-51
2021/06/11 02:55:54;;;;;;;;;;;27.90;90.40;;;;;;5084180;28;19975;-52
2021/06/11 02:58:22;;;;;;;;;;;27.80;90.40;;;;;;5084096;28;19916;-53
2021/06/11 03:00:49;;;;;;;;;;;27.80;90.20;;;;;;5083846;28;20188;-53
2021/06/11 03:03:28;;;;;;;;;;;27.80;90.40;;;;;;5046462;28;19904;-52
2021/06/11 03:05:55;;;;;;;;;;;27.80;90.50;;;;;;5065029;28;19904;-47
2021/06/11 03:08:26;;;;;;;;;;;27.80;90.50;;;;;;5066463;28;19942;-52
2021/06/11 03:10:54;;;;;;;;;;;27.80;90.50;;;;;;5084250;28;20185;-52
2021/06/11 03:13:21;;;;;;;;;;;27.80;90.50;;;;;;5084607;28;19912;-53
2021/06/11 03:15:47;;;;;;;;;;;27.80;90.80;;;;;;5084040;28;19916;-48
2021/06/11 03:18:21;;;;;;;;;;;27.80;90.70;;;;;;5083820;28;19927;-53
2021/06/11 03:20:50;;;;;;;;;;;27.80;90.90;;;;;;5066239;28;20200;-50
2021/06/11 03:23:18;;;;;;;;;;;27.80;90.90;;;;;;5084594;28;19904;-52
2021/06/11 03:25:44;;;;;;;;;;;27.80;91.10;;;;;;5084447;28;19908;-57
2021/06/11 03:28:16;;;;;;;;;;;27.80;91.00;;;;;;5083705;28;20258;-53
2021/06/11 03:30:47;;;;;;;;;;;27.70;90.90;;;;;;5066322;28;19908;-56
2021/06/11 03:33:17;;;;;;;;;;;27.70;90.90;;;;;;5084594;28;19904;-51
2021/06/11 03:35:45;;;;;;;;;;;27.70;91.00;;;;;;5087162;28;19908;-49
2021/06/11 03:38:14;;;;;;;;;;;27.70;91.20;;;;;;5070224;28;19912;-52
2021/06/11 03:40:41;;;;;;;;;;;27.70;91.30;;;;;;5088147;28;19904;-53
2021/06/11 03:43:08;;;;;;;;;;;27.70;91.40;;;;;;5087996;28;20002;-54
2021/06/11 03:45:35;;;;;;;;;;;27.70;91.50;;;;;;5088283;28;19911;-52
2021/06/11 03:48:02;;;;;;;;;;;27.70;91.50;;;;;;5088096;28;19943;-55
2021/06/11 03:50:29;;;;;;;;;;;27.70;91.50;;;;;;5087854;28;19908;-51
2021/06/11 03:52:58;;;;;;;;;;;27.70;91.60;;;;;;5069675;28;19943;-56
2021/06/11 03:55:29;;;;;;;;;;;27.70;91.60;;;;;;5087847;28;19915;-53
2021/06/11 03:58:07;;;;;;;;;;;27.70;91.60;;;;;;5087947;28;20181;-48
2021/06/11 04:00:34;;;;;;;;;;;27.70;91.50;;;;;;5088028;28;19953;-49
2021/06/11 04:03:00;;;;;;;;;;;27.70;91.40;;;;;;5088109;28;19970;-46
2021/06/11 04:05:26;;;;;;;;;;;27.70;91.40;;;;;;5087828;28;19904;-49
2021/06/11 04:07:54;;;;;;;;;;;27.70;91.40;;;;;;5087965;28;19967;-52
2021/06/11 04:10:23;;;;;;;;;;;27.70;91.30;;;;;;5087583;28;19932;-52
2021/06/11 04:12:52;;;;;;;;;;;27.70;91.40;;;;;;5087384;28;19910;-51
2021/06/11 04:15:19;;;;;;;;;;;27.70;91.40;;;;;;5087562;28;19983;-50
2021/06/11 04:17:50;;;;;;;;;;;27.70;91.40;;;;;;5087705;28;19905;-58
2021/06/11 04:20:20;;;;;;;;;;;27.70;91.50;;;;;;5087481;28;19912;-42
2021/06/11 04:22:49;;;;;;;;;;;27.70;91.60;;;;;;5087027;28;19904;-45
2021/06/11 04:25:16;;;;;;;;;;;27.70;91.60;;;;;;5087386;28;19936;-47
2021/06/11 04:27:43;;;;;;;;;;;27.70;91.50;;;;;;5087591;28;19927;-47
2021/06/11 04:30:10;;;;;;;;;;;27.70;91.60;;;;;;5087299;28;20010;-44
2021/06/11 04:32:37;;;;;;;;;;;27.70;91.50;;;;;;5087757;28;19911;-46
2021/06/11 04:35:03;;;;;;;;;;;27.70;91.50;;;;;;5087584;28;19915;-45
2021/06/11 04:37:29;;;;;;;;;;;27.70;91.60;;;;;;5087647;28;19966;-49
2021/06/11 04:39:55;;;;;;;;;;;27.70;91.60;;;;;;5087021;28;19905;-45
2021/06/11 04:42:22;;;;;;;;;;;27.70;91.60;;;;;;5087154;28;19949;-47
2021/06/11 04:44:48;;;;;;;;;;;27.70;91.50;;;;;;5087125;28;20197;-48
2021/06/11 04:47:14;;;;;;;;;;;27.70;91.50;;;;;;5087134;28;19905;-48
2021/06/11 04:49:40;;;;;;;;;;;27.70;91.60;;;;;;5087066;28;19975;-50
2021/06/11 04:52:07;;;;;;;;;;;27.70;91.60;;;;;;5087086;28;19911;-50
2021/06/11 04:54:33;;;;;;;;;;;27.70;91.60;;;;;;5086565;28;19913;-47
2021/06/11 04:57:02;;;;;;;;;;;27.70;91.60;;;;;;5086426;28;19914;-45
2021/06/11 04:59:28;;;;;;;;;;;27.70;91.90;;;;;;5086536;28;19942;-51
2021/06/11 05:01:54;;;;;;;;;;;27.70;91.40;;;;;;5086969;28;19908;-46
2021/06/11 05:04:23;;;;;;;;;;;27.70;91.20;;;;;;5086592;28;19979;-52
2021/06/11 05:06:49;;;;;;;;;;;27.70;91.20;;;;;;5086775;28;19909;-44
2021/06/11 05:09:15;;;;;;;;;;;27.70;91.10;;;;;;5086573;28;19900;-50
2021/06/11 05:11:42;;;;;;;;;;;27.70;90.90;;;;;;5068809;28;20121;-44
2021/06/11 05:14:08;;;;;;;;;;;27.60;90.90;;;;;;5086500;28;20169;-47
2021/06/11 05:16:34;;;;;;;;;;;27.60;90.80;;;;;;5086574;28;19916;-46
2021/06/11 05:19:03;;;;;;;;;;;27.70;90.70;;;;;;5086446;28;19907;-48
2021/06/11 05:21:29;;;;;;;;;;;27.60;90.50;;;;;;5086571;28;19908;-50
2021/06/11 05:23:55;;;;;;;;;;;27.60;90.50;;;;;;5086318;28;19901;-46
2021/06/11 05:26:21;;;;;;;;;;;27.60;90.40;;;;;;5086177;28;19900;-51
2021/06/11 05:28:48;;;;;;;;;;;27.60;90.30;;;;;;5086651;28;19961;-51
2021/06/11 05:31:14;;;;;;;;;;;27.60;90.30;;;;;;5086346;28;19900;-47
2021/06/11 05:33:40;;;;;;;;;;;27.60;90.40;;;;;;5086019;28;19968;-50
2021/06/11 05:36:06;;;;;;;;;;;27.60;90.50;;;;;;5086178;28;19900;-47
2021/06/11 05:38:32;;;;;;;;;;;27.60;90.40;;;;;;5086144;28;19900;-48
2021/06/11 05:41:01;;;;;;;;;;;27.60;90.40;;;;;;5086042;28;19907;-51
2021/06/11 05:43:28;;;;;;;;;;;27.60;90.30;;;;;;5086106;28;20145;-54
2021/06/11 05:45:54;;;;;;;;;;;27.50;90.30;;;;;;5086159;28;19900;-50
2021/06/11 05:48:20;;;;;;;;;;;27.60;90.40;;;;;;5086533;28;20189;-49
2021/06/11 05:50:46;;;;;;;;;;;27.60;90.20;;;;;;5085941;28;19908;-53
2021/06/11 05:53:12;;;;;;;;;;;27.50;90.20;;;;;;5086309;28;19987;-53
2021/06/11 05:55:39;;;;;;;;;;;27.60;90.30;;;;;;5085573;28;20193;-46
2021/06/11 05:58:05;;;;;;;;;;;27.50;90.40;;;;;;5085689;28;20178;-47
2021/06/11 06:00:31;;;;;;;;;;;27.50;90.70;;;;;;5085904;28;19907;-48
2021/06/11 06:02:57;;;;;;;;;;;27.50;91.10;;;;;;5085831;28;19908;-47
2021/06/11 06:05:23;;;;;;;;;;;27.60;91.30;;;;;;5085597;28;19915;-48
2021/06/11 06:07:49;;;;;;;;;;;27.50;91.40;;;;;;5085907;28;19915;-49
2021/06/11 06:10:16;;;;;;;;;;;27.50;91.70;;;;;;5085764;28;19900;-51
2021/06/11 06:12:42;;;;;;;;;;;27.50;91.60;;;;;;5085770;28;19946;-48
2021/06/11 06:15:09;;;;;;;;;;;27.50;91.80;;;;;;5085305;28;19904;-46
2021/06/11 06:17:35;;;;;;;;;;;27.50;91.80;;;;;;5085714;28;19979;-49
2021/06/11 06:20:06;;;;;;;;;;;27.40;91.80;;;;;;5085087;28;19932;-47
2021/06/11 06:22:32;;;;;;;;;;;27.40;91.90;;;;;;5085677;28;19908;-50
2021/06/11 06:24:58;;;;;;;;;;;27.40;91.80;;;;;;5085245;28;19901;-47
2021/06/11 06:27:24;;;;;;;;;;;27.30;91.80;;;;;;5085459;28;19908;-53
2021/06/11 06:29:50;;;;;;;;;;;27.30;91.80;;;;;;5084989;28;20096;-47
2021/06/11 06:32:16;;;;;;;;;;;27.30;91.90;;;;;;5085365;28;19979;-51
2021/06/11 06:34:42;;;;;;;;;;;27.30;92.00;;;;;;5084851;28;19904;-51
2021/06/11 06:37:10;;;;;;;;;;;27.20;92.10;;;;;;5085187;28;19912;-44
2021/06/11 06:39:40;;;;;;;;;;;27.20;92.20;;;;;;5085016;28;19932;-46
2021/06/11 06:42:06;;;;;;;;;;;27.20;92.20;;;;;;5084532;28;19975;-49
2021/06/11 06:44:33;;;;;;;;;;;27.20;92.30;;;;;;5084799;28;19953;-49
2021/06/11 06:47:00;;;;;;;;;;;27.20;92.20;;;;;;5085071;28;19916;-53
2021/06/11 06:49:26;;;;;;;;;;;27.20;92.20;;;;;;5084576;28;19908;-52
2021/06/11 06:51:52;;;;;;;;;;;27.10;92.20;;;;;;5084965;28;19908;-50
2021/06/11 06:54:19;;;;;;;;;;;27.10;92.20;;;;;;5084681;28;20193;-51
2021/06/11 06:56:45;;;;;;;;;;;27.10;92.10;;;;;;5084163;28;19908;-50
2021/06/11 06:59:11;;;;;;;;;;;27.10;92.20;;;;;;5084571;28;19932;-52
2021/06/11 07:01:37;;;;;;;;;;;27.10;92.30;;;;;;5084716;28;19908;-45
2021/06/11 07:04:04;;;;;;;;;;;27.10;92.40;;;;;;5084429;28;19900;-49
2021/06/11 07:06:30;;;;;;;;;;;27.10;92.30;;;;;;5084516;28;19908;-44
2021/06/11 07:08:56;;;;;;;;;;;27.10;92.40;;;;;;5084041;28;19900;-46
2021/06/11 07:11:23;;;;;;;;;;;27.10;92.30;;;;;;5084252;28;19921;-51
2021/06/11 07:13:49;;;;;;;;;;;27.00;92.30;;;;;;5084618;28;19931;-44
2021/06/11 07:16:15;;;;;;;;;;;27.00;92.30;;;;;;5084590;28;20208;-45
2021/06/11 07:18:41;;;;;;;;;;;27.10;92.30;;;;;;5084651;28;19900;-45
2021/06/11 07:21:09;;;;;;;;;;;27.10;92.30;;;;;;5084291;28;20147;-45
2021/06/11 07:23:36;;;;;;;;;;;27.00;92.30;;;;;;5084350;28;19935;-45
2021/06/11 07:26:05;;;;;;;;;;;27.00;92.40;;;;;;5084139;28;20180;-45
2021/06/11 07:28:35;;;;;;;;;;;27.00;92.40;;;;;;5084554;28;19918;-45
2021/06/11 07:31:02;;;;;;;;;;;27.00;92.70;;;;;;5084275;28;20131;-46
2021/06/11 07:33:29;;;;;;;;;;;27.00;92.40;;;;;;5084095;28;19936;-44
2021/06/11 07:35:57;;;;;;;;;;;27.00;92.40;;;;;;5084471;28;19927;-48
2021/06/11 07:38:23;;;;;;;;;;;27.00;92.30;;;;;;5084696;28;19954;-46
2021/06/11 07:40:51;;;;;;;;;;;27.00;92.20;;;;;;5084111;28;19927;-50
2021/06/11 07:43:18;;;;;;;;;;;27.00;92.00;;;;;;5084539;28;19991;-45
2021/06/11 07:45:44;;;;;;;;;;;27.00;91.80;;;;;;5084478;28;19900;-45
2021/06/11 07:48:10;;;;;;;;;;;27.00;91.80;;;;;;5084636;28;19908;-49
2021/06/11 07:50:36;;;;;;;;;;;26.90;91.70;;;;;;5084170;28;19972;-44
2021/06/11 07:53:02;;;;;;;;;;;26.90;91.70;;;;;;5084368;28;19908;-49
2021/06/11 07:55:29;;;;;;;;;;;26.90;91.70;;;;;;5084072;28;20068;-47
2021/06/11 07:57:55;;;;;;;;;;;26.90;91.80;;;;;;5084091;28;19912;-50
2021/06/11 08:00:21;;;;;;;;;;;26.90;91.90;;;;;;5084001;28;20148;-45
2021/06/11 08:02:47;;;;;;;;;;;26.90;91.80;;;;;;5084608;28;20205;-46
2021/06/11 08:05:14;;;;;;;;;;;26.80;91.80;;;;;;5083812;28;19908;-46
2021/06/11 08:07:40;;;;;;;;;;;26.80;92.00;;;;;;5084150;28;19946;-46
2021/06/11 08:10:06;;;;;;;;;;;26.80;91.70;;;;;;5083938;28;19900;-47
2021/06/11 08:12:32;;;;;;;;;;;26.80;91.80;;;;;;5083851;28;19958;-52
2021/06/11 08:14:59;;;;;;;;;;;26.80;91.80;;;;;;5083885;28;20243;-50
2021/06/11 08:17:26;;;;;;;;;;;26.80;91.70;;;;;;5083982;28;19912;-47
2021/06/11 08:19:52;;;;;;;;;;;26.80;91.70;;;;;;5083646;28;20007;-49
2021/06/11 08:22:18;;;;;;;;;;;26.70;91.60;;;;;;5087486;28;20085;-49
2021/06/11 08:24:44;;;;;;;;;;;26.70;91.60;;;;;;5087478;28;19900;-46
2021/06/11 08:27:11;;;;;;;;;;;26.70;91.60;;;;;;5087624;28;19908;-50
2021/06/11 08:29:37;;;;;;;;;;;26.80;91.60;;;;;;5087279;28;19901;-47
2021/06/11 08:32:03;;;;;;;;;;;26.70;91.60;;;;;;5087643;28;19908;-51
2021/06/11 08:34:32;;;;;;;;;;;26.70;91.60;;;;;;5087369;28;19905;-49
2021/06/11 08:36:58;;;;;;;;;;;26.70;91.60;;;;;;5087365;28;19924;-48
2021/06/11 08:39:24;;;;;;;;;;;26.70;91.60;;;;;;5087119;28;19900;-51
2021/06/11 08:41:50;;;;;;;;;;;26.70;91.60;;;;;;5087577;28;19940;-52
2021/06/11 08:44:18;;;;;;;;;;;26.60;91.60;;;;;;5087336;28;19941;-50
2021/06/11 08:46:45;;;;;;;;;;;26.60;91.60;;;;;;5087200;28;20093;-49
2021/06/11 08:49:11;;;;;;;;;;;26.60;91.60;;;;;;5087016;28;20204;-50
2021/06/11 08:51:38;;;;;;;;;;;26.60;91.60;;;;;;5087006;28;20143;-48
2021/06/11 08:54:04;;;;;;;;;;;26.60;91.60;;;;;;5087097;28;19912;-52
2021/06/11 08:56:30;;;;;;;;;;;26.60;91.70;;;;;;5087091;28;19936;-45
2021/06/11 08:58:56;;;;;;;;;;;26.50;91.60;;;;;;5087062;28;19967;-45
2021/06/11 09:01:22;;;;;;;;;;;26.60;91.70;;;;;;5086776;28;19924;-50
2021/06/11 09:03:52;;;;;;;;;;;26.60;91.70;;;;;;5086780;28;19900;-53
2021/06/11 09:06:19;;;;;;;;;;;26.60;91.80;;;;;;5086518;28;19900;-48
2021/06/11 09:08:53;;;;;;;;;;;26.60;91.80;;;;;;5086787;28;19939;-48
2021/06/11 09:11:19;;;;;;;;;;;26.50;91.80;;;;;;5086600;28;19900;-51
2021/06/11 09:13:49;;;;;;;;;;;26.50;91.80;;;;;;5086863;28;20164;-47
2021/06/11 09:16:20;;;;;;;;;;;26.50;91.80;;;;;;5086606;28;19906;-51
2021/06/11 09:18:47;;;;;;;;;;;26.50;91.80;;;;;;5086381;28;20097;-52
2021/06/11 09:21:32;;;;;;;;;;;26.50;91.90;;;;;;5086545;28;19901;-52
2021/06/11 09:24:09;;;;;;;;;;;26.40;91.90;;;;;;5086218;28;19900;-49
2021/06/11 09:26:36;;;;;;;;;;;26.40;91.90;;;;;;5086820;28;19908;-51
2021/06/11 09:29:25;;;;;;;;;;;26.40;92.00;;;;;;5086566;28;19908;-50
2021/06/11 09:31:52;;;;;;;;;;;26.50;91.90;;;;;;5078183;28;20124;-51
2021/06/11 09:34:28;;;;;;;;;;;26.40;91.90;;;;;;5086050;28;19904;-46
2021/06/11 09:37:13;;;;;;;;;;;26.40;92.00;;;;;;5086273;28;19972;-54
2021/06/11 09:39:44;;;;;;;;;;;26.40;92.00;;;;;;5086175;28;19900;-48
2021/06/11 09:42:11;;;;;;;;;;;26.40;92.10;;;;;;5086462;28;20178;-49
2021/06/11 09:44:37;;;;;;;;;;;26.40;92.00;;;;;;5085916;28;20189;-52
2021/06/11 09:47:03;;;;;;;;;;;26.40;92.00;;;;;;5086492;28;19908;-47
2021/06/11 09:49:49;;;;;;;;;;;26.40;92.20;;;;;;5086236;28;19971;-44
2021/06/11 09:52:16;;;;;;;;;;;26.30;92.20;;;;;;5085995;28;19909;-51
2021/06/11 09:54:42;;;;;;;;;;;26.30;92.10;;;;;;5085671;28;19980;-49
2021/06/11 09:57:28;;;;;;;;;;;26.30;92.10;;;;;;5085872;28;19908;-45
2021/06/11 09:59:54;;;;;;;;;;;26.30;92.10;;;;;;5085518;28;20150;-50
2021/06/11 10:02:21;;;;;;;;;;;26.30;92.10;;;;;;5086141;28;19976;-51
2021/06/11 10:04:47;;;;;;;;;;;26.40;92.10;;;;;;5085788;28;19911;-51
2021/06/11 10:07:14;;;;;;;;;;;26.30;92.10;;;;;;5085652;28;19905;-45
2021/06/11 10:09:41;;;;;;;;;;;26.30;92.10;;;;;;5085485;28;19976;-47
2021/06/11 10:12:08;;;;;;;;;;;26.30;92.10;;;;;;5085951;28;19912;-46
2021/06/11 10:14:35;;;;;;;;;;;26.30;92.10;;;;;;5085126;28;20255;-51
2021/06/11 10:17:02;;;;;;;;;;;26.30;92.20;;;;;;5085652;28;19908;-51
2021/06/11 10:19:29;;;;;;;;;;;26.30;92.20;;;;;;5085476;28;19957;-46
2021/06/11 10:21:55;;;;;;;;;;;26.40;92.20;;;;;;5085231;28;19912;-44
2021/06/11 10:24:21;;;;;;;;;;;26.30;92.20;;;;;;5085533;28;19904;-44
2021/06/11 10:26:49;;;;;;;;;;;26.30;92.20;;;;;;5085455;28;19953;-45
2021/06/11 10:29:16;;;;;;;;;;;26.30;92.30;;;;;;5085081;28;19912;-48
2021/06/11 10:31:42;;;;;;;;;;;26.30;92.30;;;;;;5085325;28;19916;-51
2021/06/11 10:34:09;;;;;;;;;;;26.30;92.30;;;;;;5085082;28;19986;-43
2021/06/11 10:36:38;;;;;;;;;;;26.30;92.40;;;;;;5085337;28;19909;-43
2021/06/11 10:39:14;;;;;;;;;;;26.30;92.50;;;;;;5085435;28;19919;-46
2021/06/11 10:41:53;;;;;;;;;;;26.30;92.40;;;;;;5084993;28;19911;-49
2021/06/11 10:44:38;;;;;;;;;;;26.30;92.50;;;;;;5084798;28;19913;-52
2021/06/11 10:47:16;;;;;;;;;;;26.30;92.50;;;;;;5067364;28;19904;-48
2021/06/11 10:49:58;;;;;;;;;;;26.30;92.60;;;;;;5084988;28;19911;-46
2021/06/11 10:52:47;;;;;;;;;;;26.30;92.60;;;;;;5085031;28;19904;-44
2021/06/11 10:55:14;;;;;;;;;;;26.30;92.60;;;;;;5084558;28;20105;-48
2021/06/11 10:57:41;;;;;;;;;;;26.30;92.70;;;;;;5085100;28;19931;-53
2021/06/11 11:00:22;;;;;;;;;;;26.30;92.70;;;;;;5066897;28;19904;-50
2021/06/11 11:02:49;;;;;;;;;;;26.30;92.70;;;;;;5085190;28;19942;-46
2021/06/11 11:05:25;;;;;;;;;;;26.30;92.80;;;;;;5084499;28;19907;-47
2021/06/11 11:07:51;;;;;;;;;;;26.30;92.80;;;;;;5085184;28;19909;-50
2021/06/11 11:10:32;;;;;;;;;;;26.30;92.80;;;;;;5084445;28;19900;-50
2021/06/11 11:12:59;;;;;;;;;;;26.30;92.80;;;;;;5084850;28;19908;-46
2021/06/11 11:15:38;;;;;;;;;;;26.30;92.80;;;;;;5084495;28;19904;-57
2021/06/11 11:18:05;;;;;;;;;;;26.30;92.80;;;;;;5084864;28;20242;-46
2021/06/11 11:20:34;;;;;;;;;;;26.30;92.90;;;;;;5084612;28;19907;-54
2021/06/11 11:23:02;;;;;;;;;;;26.30;92.80;;;;;;5084629;28;19908;-50
2021/06/11 11:25:28;;;;;;;;;;;26.30;92.80;;;;;;5084311;28;19907;-46
2021/06/11 11:27:55;;;;;;;;;;;26.30;92.80;;;;;;5084970;28;19909;-44
2021/06/11 11:30:26;;;;;;;;;;;26.30;92.70;;;;;;5084276;28;19901;-46
2021/06/11 11:32:55;;;;;;;;;;;26.30;92.60;;;;;;5084596;28;20212;-46
2021/06/11 11:35:22;;;;;;;;;;;26.30;92.50;;;;;;5084163;28;19911;-43
2021/06/11 11:37:51;;;;;;;;;;;26.30;92.50;;;;;;5084468;28;19950;-46
2021/06/11 11:40:18;;;;;;;;;;;26.30;92.40;;;;;;5084308;28;19979;-45
2021/06/11 11:42:45;;;;;;;;;;;26.30;92.40;;;;;;5084791;28;19909;-47
2021/06/11 11:45:12;;;;;;;;;;;26.30;92.40;;;;;;5084083;28;19901;-44
2021/06/11 11:47:38;;;;;;;;;;;26.30;92.30;;;;;;5080982;28;19916;-46
2021/06/11 11:50:05;;;;;;;;;;;26.30;92.30;;;;;;5079526;28;19908;-48
2021/06/11 11:52:32;;;;;;;;;;;26.30;92.30;;;;;;5082793;28;19908;-47
2021/06/11 11:54:58;;;;;;;;;;;26.30;92.30;;;;;;5083401;28;19920;-47
2021/06/11 11:57:25;;;;;;;;;;;26.20;92.50;;;;;;5087734;28;19920;-46
2021/06/11 11:59:51;;;;;;;;;;;26.20;92.60;;;;;;5086869;28;19900;-53
2021/06/11 12:02:18;;;;;;;;;;;26.20;92.80;;;;;;5086826;28;19915;-54
2021/06/11 12:04:44;;;;;;;;;;;26.20;93.00;;;;;;5087115;28;19901;-49
2021/06/11 12:07:11;;;;;;;;;;;26.20;92.90;;;;;;5091782;28;20211;-47
2021/06/11 12:09:37;;;;;;;;;;;26.20;92.90;;;;;;5106899;28;19900;-46
2021/06/11 12:12:03;;;;;;;;;;;26.20;92.80;;;;;;5091882;28;20892;-47
2021/06/11 12:14:30;;;;;;;;;;;26.30;93.00;;;;;;5085306;28;20197;-51
2021/06/11 12:16:56;;;;;;;;;;;26.20;93.00;;;;;;5084568;28;19916;-46
2021/06/11 12:19:22;;;;;;;;;;;26.30;93.00;;;;;;5086855;28;19954;-58
2021/06/11 12:21:48;;;;;;;;;;;26.30;93.10;;;;;;5101212;28;19992;-44
2021/06/11 12:24:16;;;;;;;;;;;26.30;93.20;;;;;;5087822;28;19904;-47
2021/06/11 12:26:42;;;;;;;;;;;26.30;93.10;;;;;;5105144;28;19908;-51
2021/06/11 12:29:09;;;;;;;;;;;26.30;93.20;;;;;;5083896;28;19978;-50
2021/06/11 12:31:37;;;;;;;;;;;26.30;93.10;;;;;;5083149;28;20246;-46
2021/06/11 12:34:03;;;;;;;;;;;26.30;93.00;;;;;;5102636;28;19900;-54
2021/06/11 12:36:29;;;;;;;;;;;26.30;93.10;;;;;;5085798;28;19975;-45
2021/06/11 12:38:55;;;;;;;;;;;26.30;93.00;;;;;;5085486;28;19900;-48
2021/06/11 12:41:22;;;;;;;;;;;26.30;93.00;;;;;;5086961;28;19920;-50
2021/06/11 12:46:33;;;;;;;;;;;26.40;92.90;;;;;;5068019;28;19955;-50
2021/06/11 12:48:59;;;;;;;;;;;26.30;92.80;;;;;;5086446;28;20185;-51
2021/06/11 12:51:27;;;;;;;;;;;26.40;92.70;;;;;;5087155;28;19988;-50
2021/06/11 12:53:53;;;;;;;;;;;26.40;92.70;;;;;;5086690;28;19919;-49
2021/06/11 12:56:20;;;;;;;;;;;26.30;92.60;;;;;;5086787;28;19900;-49
2021/06/11 12:58:46;;;;;;;;;;;26.40;92.60;;;;;;5068742;28;20126;-51
2021/06/11 13:01:12;;;;;;;;;;;26.40;92.60;;;;;;5086136;28;19928;-45
2021/06/11 13:03:39;;;;;;;;;;;26.40;92.50;;;;;;5086265;28;20216;-47
2021/06/11 13:06:05;;;;;;;;;;;26.40;92.20;;;;;;5085741;28;19901;-48
2021/06/11 13:08:32;;;;;;;;;;;26.40;92.10;;;;;;5085351;28;20086;-51
2021/06/11 13:10:58;;;;;;;;;;;26.40;92.30;;;;;;5086330;28;19901;-50
2021/06/11 13:13:24;;;;;;;;;;;26.40;92.40;;;;;;5080026;28;19975;-46
2021/06/11 13:15:50;;;;;;;;;;;26.30;92.40;;;;;;5085947;28;19904;-50
2021/06/11 13:18:17;;;;;;;;;;;26.30;92.40;;;;;;5100497;28;19944;-49
2021/06/11 13:20:43;;;;;;;;;;;26.30;92.30;;;;;;5073854;28;19931;-50
2021/06/11 13:23:09;;;;;;;;;;;26.30;92.30;;;;;;5099692;28;19979;-49
2021/06/11 13:25:35;;;;;;;;;;;26.30;92.30;;;;;;5074180;28;19968;-53
2021/06/11 13:28:02;;;;;;;;;;;26.30;92.20;;;;;;5068564;28;19962;-54
2021/06/11 13:30:29;;;;;;;;;;;26.40;92.40;;;;;;5086187;28;20097;-47
2021/06/11 13:32:55;;;;;;;;;;;26.40;92.50;;;;;;5066941;28;19910;-51
2021/06/11 13:35:22;;;;;;;;;;;26.30;92.40;;;;;;5083617;28;20082;-49
2021/06/11 13:37:48;;;;;;;;;;;26.40;92.30;;;;;;5084800;28;20256;-50
2021/06/11 13:40:15;;;;;;;;;;;26.40;92.20;;;;;;5084612;28;19907;-47
2021/06/11 13:42:42;;;;;;;;;;;26.40;92.20;;;;;;5084968;28;19961;-48
2021/06/11 13:45:12;;;;;;;;;;;26.40;92.00;;;;;;5083967;28;19900;-46
2021/06/11 13:47:44;;;;;;;;;;;26.40;91.90;;;;;;5084711;28;19907;-50
2021/06/11 13:50:17;;;;;;;;;;;26.50;91.90;;;;;;5084508;28;19904;-49
2021/06/11 13:52:44;;;;;;;;;;;26.50;92.00;;;;;;5084834;28;20227;-47
2021/06/11 13:55:11;;;;;;;;;;;26.50;92.00;;;;;;5084270;28;20189;-49
2021/06/11 13:57:37;;;;;;;;;;;26.60;92.00;;;;;;5084314;28;19908;-48
2021/06/11 14:00:05;;;;;;;;;;;26.60;92.00;;;;;;5084552;28;19932;-47
2021/06/11 14:02:31;;;;;;;;;;;26.60;92.10;;;;;;5084482;28;19908;-46
2021/06/11 14:04:58;;;;;;;;;;;26.70;92.00;;;;;;5083749;28;20096;-51
2021/06/11 14:07:24;;;;;;;;;;;26.70;91.90;;;;;;5084448;28;19915;-44
2021/06/11 14:09:50;;;;;;;;;;;26.80;91.90;;;;;;5084430;28;19979;-50
2021/06/11 14:12:17;;;;;;;;;;;26.80;92.00;;;;;;5084290;28;19908;-49
2021/06/11 14:14:43;;;;;;;;;;;26.80;92.00;;;;;;5092562;28;19912;-52
2021/06/11 14:17:09;;;;;;;;;;;26.90;91.90;;;;;;5099877;28;19943;-45
2021/06/11 14:19:36;;;;;;;;;;;26.90;91.70;;;;;;5083789;28;19907;-46
2021/06/11 14:22:02;;;;;;;;;;;26.90;91.70;;;;;;5084041;28;19914;-46